sensor_id;sensor_type;location;lat;lon;timestamp;pressure;altitude;pressure_sealevel;temperature;humidity
44697;BME280;57264;47.480;19.354;2024-02-21T00:00:45;99769.53;;;4.67;85.95
44697;BME280;57264;47.480;19.354;2024-02-21T00:03:10;99764.38;;;4.67;85.97
44697;BME280;57264;47.480;19.354;2024-02-21T00:05:36;99760.13;;;4.66;86.85
44697;BME280;57264;47.480;19.354;2024-02-21T00:08:01;99760.97;;;4.65;86.22
44697;BME280;57264;47.480;19.354;2024-02-21T00:10:27;99761.84;;;4.68;86.33
44697;BME280;57264;47.480;19.354;2024-02-21T00:12:52;99760.97;;;4.69;86.37
44697;BME280;57264;47.480;19.354;2024-02-21T00:15:17;99765.25;;;4.71;86.51
44697;BME280;57264;47.480;19.354;2024-02-21T00:17:43;99753.25;;;4.77;86.14
44697;BME280;57264;47.480;19.354;2024-02-21T00:20:09;99757.53;;;4.84;86.42
44697;BME280;57264;47.480;19.354;2024-02-21T00:22:35;99751.53;;;4.88;86.13
44697;BME280;57264;47.480;19.354;2024-02-21T00:25:00;99763.50;;;4.94;86.28
44697;BME280;57264;47.480;19.354;2024-02-21T00:27:26;99752.38;;;4.95;85.98
44697;BME280;57264;47.480;19.354;2024-02-21T00:29:51;99754.06;;;5.01;85.84
44697;BME280;57264;47.480;19.354;2024-02-21T00:32:16;99752.34;;;5.04;86.42
44697;BME280;57264;47.480;19.354;2024-02-21T00:34:42;99748.88;;;5.13;85.74
44697;BME280;57264;47.480;19.354;2024-02-21T00:37:07;99745.44;;;5.18;85.76
44697;BME280;57264;47.480;19.354;2024-02-21T00:39:32;99734.28;;;5.21;85.53
44697;BME280;57264;47.480;19.354;2024-02-21T00:41:57;99736.00;;;5.21;84.92
44697;BME280;57264;47.480;19.354;2024-02-21T00:44:23;99731.69;;;5.21;84.93
44697;BME280;57264;47.480;19.354;2024-02-21T00:46:48;99724.00;;;5.23;85.31
44697;BME280;57264;47.480;19.354;2024-02-21T00:49:13;99721.41;;;5.21;85.26
44697;BME280;57264;47.480;19.354;2024-02-21T00:51:39;99718.84;;;5.20;84.83
44697;BME280;57264;47.480;19.354;2024-02-21T00:54:04;99723.13;;;5.19;84.97
44697;BME280;57264;47.480;19.354;2024-02-21T00:56:29;99720.56;;;5.19;84.49
44697;BME280;57264;47.480;19.354;2024-02-21T00:58:56;99715.38;;;5.24;84.54
44697;BME280;57264;47.480;19.354;2024-02-21T01:01:22;99718.78;;;5.29;84.32
44697;BME280;57264;47.480;19.354;2024-02-21T01:03:47;99723.91;;;5.36;83.63
44697;BME280;57264;47.480;19.354;2024-02-21T01:06:13;99729.06;;;5.38;83.39
44697;BME280;57264;47.480;19.354;2024-02-21T01:08:38;99728.19;;;5.40;84.01
44697;BME280;57264;47.480;19.354;2024-02-21T01:11:04;99723.03;;;5.40;83.15
44697;BME280;57264;47.480;19.354;2024-02-21T01:13:29;99720.50;;;5.39;83.18
44697;BME280;57264;47.480;19.354;2024-02-21T01:15:54;99715.31;;;5.40;82.73
44697;BME280;57264;47.480;19.354;2024-02-21T01:18:20;99719.63;;;5.40;82.85
44697;BME280;57264;47.480;19.354;2024-02-21T01:20:45;99711.88;;;5.40;82.42
44697;BME280;57264;47.480;19.354;2024-02-21T01:23:10;99715.31;;;5.40;82.60
44697;BME280;57264;47.480;19.354;2024-02-21T01:25:36;99715.34;;;5.36;81.97
44697;BME280;57264;47.480;19.354;2024-02-21T01:28:01;99709.34;;;5.35;81.80
44697;BME280;57264;47.480;19.354;2024-02-21T01:30:26;99709.34;;;5.35;81.77
44697;BME280;57264;47.480;19.354;2024-02-21T01:32:52;99708.47;;;5.32;82.66
44697;BME280;57264;47.480;19.354;2024-02-21T01:35:17;99705.91;;;5.29;82.74
44697;BME280;57264;47.480;19.354;2024-02-21T01:37:43;99705.91;;;5.26;82.75
44697;BME280;57264;47.480;19.354;2024-02-21T01:40:08;99705.91;;;5.30;81.95
44697;BME280;57264;47.480;19.354;2024-02-21T01:42:37;99704.22;;;5.28;82.23
44697;BME280;57264;47.480;19.354;2024-02-21T01:45:03;99704.22;;;5.28;81.92
44697;BME280;57264;47.480;19.354;2024-02-21T01:47:29;99708.50;;;5.29;81.61
44697;BME280;57264;47.480;19.354;2024-02-21T01:49:54;99699.88;;;5.30;81.85
44697;BME280;57264;47.480;19.354;2024-02-21T01:52:20;99705.91;;;5.33;81.81
44697;BME280;57264;47.480;19.354;2024-02-21T01:54:46;99694.75;;;5.31;81.45
44697;BME280;57264;47.480;19.354;2024-02-21T01:57:12;99697.31;;;5.30;81.04
44697;BME280;57264;47.480;19.354;2024-02-21T01:59:38;99694.75;;;5.30;81.55
44697;BME280;57264;47.480;19.354;2024-02-21T02:02:04;99691.28;;;5.34;81.25
44697;BME280;57264;47.480;19.354;2024-02-21T02:04:30;99687.88;;;5.32;81.09
44697;BME280;57264;47.480;19.354;2024-02-21T02:06:55;99693.03;;;5.35;80.30
44697;BME280;57264;47.480;19.354;2024-02-21T02:09:21;99679.28;;;5.33;79.98
44697;BME280;57264;47.480;19.354;2024-02-21T02:11:46;99685.31;;;5.32;80.43
44697;BME280;57264;47.480;19.354;2024-02-21T02:14:11;99687.00;;;5.33;80.25
44697;BME280;57264;47.480;19.354;2024-02-21T02:16:37;99688.72;;;5.29;80.61
44697;BME280;57264;47.480;19.354;2024-02-21T02:19:02;99682.75;;;5.26;79.85
44697;BME280;57264;47.480;19.354;2024-02-21T02:21:32;99673.34;;;5.20;79.92
44697;BME280;57264;47.480;19.354;2024-02-21T02:23:58;99679.34;;;5.21;80.30
44697;BME280;57264;47.480;19.354;2024-02-21T02:26:24;99666.47;;;5.21;79.63
44697;BME280;57264;47.480;19.354;2024-02-21T02:28:49;99674.19;;;5.21;79.24
44697;BME280;57264;47.480;19.354;2024-02-21T02:31:15;99678.47;;;5.18;79.76
44697;BME280;57264;47.480;19.354;2024-02-21T02:33:42;99676.75;;;5.21;79.01
44697;BME280;57264;47.480;19.354;2024-02-21T02:36:07;99671.63;;;5.19;78.99
44697;BME280;57264;47.480;19.354;2024-02-21T02:38:33;99665.59;;;5.22;78.79
44697;BME280;57264;47.480;19.354;2024-02-21T02:40:58;99669.88;;;5.24;78.41
44697;BME280;57264;47.480;19.354;2024-02-21T02:43:23;99675.03;;;5.27;78.04
44697;BME280;57264;47.480;19.354;2024-02-21T02:45:49;99669.03;;;5.27;78.34
44697;BME280;57264;47.480;19.354;2024-02-21T02:48:14;99672.47;;;5.20;78.57
44697;BME280;57264;47.480;19.354;2024-02-21T02:50:39;99666.53;;;5.07;78.33
44697;BME280;57264;47.480;19.354;2024-02-21T02:53:05;99669.97;;;5.04;78.95
44697;BME280;57264;47.480;19.354;2024-02-21T02:55:30;99675.13;;;5.00;78.64
44697;BME280;57264;47.480;19.354;2024-02-21T02:57:55;99672.56;;;5.00;78.63
44697;BME280;57264;47.480;19.354;2024-02-21T03:00:21;99669.97;;;4.97;78.58
44697;BME280;57264;47.480;19.354;2024-02-21T03:02:48;99667.44;;;4.89;78.93
44697;BME280;57264;47.480;19.354;2024-02-21T03:05:18;99673.44;;;4.89;78.51
44697;BME280;57264;47.480;19.354;2024-02-21T03:07:44;99668.28;;;4.89;78.85
44697;BME280;57264;47.480;19.354;2024-02-21T03:10:09;99672.56;;;4.86;79.61
44697;BME280;57264;47.480;19.354;2024-02-21T03:12:35;99666.59;;;4.81;79.29
44697;BME280;57264;47.480;19.354;2024-02-21T03:15:00;99665.75;;;4.77;79.08
44697;BME280;57264;47.480;19.354;2024-02-21T03:17:26;99676.03;;;4.77;79.37
44697;BME280;57264;47.480;19.354;2024-02-21T03:19:54;99673.47;;;4.73;78.84
44697;BME280;57264;47.480;19.354;2024-02-21T03:22:20;99679.50;;;4.72;79.31
44697;BME280;57264;47.480;19.354;2024-02-21T03:24:46;99678.59;;;4.71;79.22
44697;BME280;57264;47.480;19.354;2024-02-21T03:27:11;99672.63;;;4.72;78.53
44697;BME280;57264;47.480;19.354;2024-02-21T03:29:36;99677.78;;;4.72;78.07
44697;BME280;57264;47.480;19.354;2024-02-21T03:32:02;99688.06;;;4.71;78.16
44697;BME280;57264;47.480;19.354;2024-02-21T03:34:27;99683.78;;;4.65;78.13
44697;BME280;57264;47.480;19.354;2024-02-21T03:36:53;99683.78;;;4.69;78.27
44697;BME280;57264;47.480;19.354;2024-02-21T03:39:18;99682.94;;;4.64;77.93
44697;BME280;57264;47.480;19.354;2024-02-21T03:41:43;99687.22;;;4.59;78.47
44697;BME280;57264;47.480;19.354;2024-02-21T03:44:09;99674.38;;;4.59;78.39
44697;BME280;57264;47.480;19.354;2024-02-21T03:46:34;99676.06;;;4.54;77.97
44697;BME280;57264;47.480;19.354;2024-02-21T03:49:00;99678.66;;;4.53;78.66
44697;BME280;57264;47.480;19.354;2024-02-21T03:51:26;99685.50;;;4.51;79.39
44697;BME280;57264;47.480;19.354;2024-02-21T03:53:51;99681.25;;;4.43;79.12
44697;BME280;57264;47.480;19.354;2024-02-21T03:56:16;99682.09;;;4.35;79.29
44697;BME280;57264;47.480;19.354;2024-02-21T03:58:42;99682.09;;;4.30;78.50
44697;BME280;57264;47.480;19.354;2024-02-21T04:01:07;99686.38;;;4.31;79.40
44697;BME280;57264;47.480;19.354;2024-02-21T04:03:33;99681.22;;;4.19;79.36
44697;BME280;57264;47.480;19.354;2024-02-21T04:05:58;99688.94;;;4.19;79.40
44697;BME280;57264;47.480;19.354;2024-02-21T04:08:24;99691.53;;;4.17;79.01
44697;BME280;57264;47.480;19.354;2024-02-21T04:10:49;99693.25;;;4.18;78.76
44697;BME280;57264;47.480;19.354;2024-02-21T04:13:14;99685.53;;;4.11;79.20
44697;BME280;57264;47.480;19.354;2024-02-21T04:15:40;99685.53;;;4.00;79.94
44697;BME280;57264;47.480;19.354;2024-02-21T04:18:05;99688.09;;;3.94;80.06
44697;BME280;57264;47.480;19.354;2024-02-21T04:20:31;99688.94;;;3.87;80.73
44697;BME280;57264;47.480;19.354;2024-02-21T04:22:57;99688.94;;;3.85;80.62
44697;BME280;57264;47.480;19.354;2024-02-21T04:25:23;99699.22;;;3.85;80.68
44697;BME280;57264;47.480;19.354;2024-02-21T04:27:48;99694.91;;;3.83;80.48
44697;BME280;57264;47.480;19.354;2024-02-21T04:30:14;99702.63;;;3.78;80.75
44697;BME280;57264;47.480;19.354;2024-02-21T04:32:40;99703.47;;;3.73;80.92
44697;BME280;57264;47.480;19.354;2024-02-21T04:35:06;99692.34;;;3.69;80.83
44697;BME280;57264;47.480;19.354;2024-02-21T04:37:32;99689.75;;;3.61;81.00
44697;BME280;57264;47.480;19.354;2024-02-21T04:39:57;99687.13;;;3.55;81.56
44697;BME280;57264;47.480;19.354;2024-02-21T04:42:22;99695.69;;;3.51;82.02
44697;BME280;57264;47.480;19.354;2024-02-21T04:44:48;99687.13;;;3.46;82.05
44697;BME280;57264;47.480;19.354;2024-02-21T04:47:13;99687.13;;;3.44;81.99
44697;BME280;57264;47.480;19.354;2024-02-21T04:49:38;99685.34;;;3.31;82.58
44697;BME280;57264;47.480;19.354;2024-02-21T04:52:04;99684.47;;;3.17;82.43
44697;BME280;57264;47.480;19.354;2024-02-21T04:54:29;99686.13;;;3.07;82.61
44697;BME280;57264;47.480;19.354;2024-02-21T04:56:54;99682.66;;;2.98;82.74
44697;BME280;57264;47.480;19.354;2024-02-21T04:59:20;99685.16;;;2.87;83.41
44697;BME280;57264;47.480;19.354;2024-02-21T05:01:45;99692.81;;;2.79;83.81
44697;BME280;57264;47.480;19.354;2024-02-21T05:04:10;99699.59;;;2.72;84.22
44697;BME280;57264;47.480;19.354;2024-02-21T05:06:39;99700.44;;;2.68;84.62
44697;BME280;57264;47.480;19.354;2024-02-21T05:09:05;99702.94;;;2.59;84.82
44697;BME280;57264;47.480;19.354;2024-02-21T05:11:30;99702.91;;;2.56;85.46
44697;BME280;57264;47.480;19.354;2024-02-21T05:13:56;99708.81;;;2.44;85.16
44697;BME280;57264;47.480;19.354;2024-02-21T05:16:21;99702.72;;;2.29;85.54
44697;BME280;57264;47.480;19.354;2024-02-21T05:18:46;99698.41;;;2.25;85.55
44697;BME280;57264;47.480;19.354;2024-02-21T05:21:12;99706.88;;;2.16;85.81
44697;BME280;57264;47.480;19.354;2024-02-21T05:23:38;99704.22;;;2.05;85.91
44697;BME280;57264;47.480;19.354;2024-02-21T05:26:04;99707.53;;;1.92;86.14
44697;BME280;57264;47.480;19.354;2024-02-21T05:28:30;99707.53;;;1.92;86.95
44697;BME280;57264;47.480;19.354;2024-02-21T05:30:55;99708.41;;;1.95;87.48
44697;BME280;57264;47.480;19.354;2024-02-21T05:33:20;99705.84;;;1.97;87.81
44697;BME280;57264;47.480;19.354;2024-02-21T05:35:49;99703.28;;;1.95;87.83
44697;BME280;57264;47.480;19.354;2024-02-21T05:38:14;99702.47;;;2.00;88.06
44697;BME280;57264;47.480;19.354;2024-02-21T05:40:39;99695.66;;;2.03;88.52
44697;BME280;57264;47.480;19.354;2024-02-21T05:43:05;99696.53;;;2.04;88.45
44697;BME280;57264;47.480;19.354;2024-02-21T05:45:30;99696.53;;;2.05;88.50
44697;BME280;57264;47.480;19.354;2024-02-21T05:47:56;99700.84;;;2.09;88.77
44697;BME280;57264;47.480;19.354;2024-02-21T05:50:22;99699.19;;;2.14;89.03
44697;BME280;57264;47.480;19.354;2024-02-21T05:52:51;99705.25;;;2.26;89.02
44697;BME280;57264;47.480;19.354;2024-02-21T05:55:16;99706.97;;;2.28;89.15
44697;BME280;57264;47.480;19.354;2024-02-21T05:57:41;99704.44;;;2.30;89.11
44697;BME280;57264;47.480;19.354;2024-02-21T06:00:07;99719.84;;;2.30;89.17
44697;BME280;57264;47.480;19.354;2024-02-21T06:02:32;99724.97;;;2.31;88.73
44697;BME280;57264;47.480;19.354;2024-02-21T06:04:58;99720.69;;;2.33;89.17
44697;BME280;57264;47.480;19.354;2024-02-21T06:07:23;99730.13;;;2.34;89.25
44697;BME280;57264;47.480;19.354;2024-02-21T06:09:48;99722.44;;;2.34;89.34
44697;BME280;57264;47.480;19.354;2024-02-21T06:12:14;99722.47;;;2.39;89.28
44697;BME280;57264;47.480;19.354;2024-02-21T06:14:39;99728.47;;;2.42;89.53
44697;BME280;57264;47.480;19.354;2024-02-21T06:17:04;99733.66;;;2.50;89.18
44697;BME280;57264;47.480;19.354;2024-02-21T06:19:30;99730.28;;;2.56;89.33
44697;BME280;57264;47.480;19.354;2024-02-21T06:21:55;99732.91;;;2.63;89.10
44697;BME280;57264;47.480;19.354;2024-02-21T06:24:20;99726.25;;;2.94;88.87
44697;BME280;57264;47.480;19.354;2024-02-21T06:26:46;99724.75;;;3.36;87.88
44697;BME280;57264;47.480;19.354;2024-02-21T06:29:12;99728.31;;;3.78;86.95
44697;BME280;57264;47.480;19.354;2024-02-21T06:31:39;99729.22;;;4.09;85.74
44697;BME280;57264;47.480;19.354;2024-02-21T06:34:05;99733.53;;;4.30;83.90
44697;BME280;57264;47.480;19.354;2024-02-21T06:36:30;99738.69;;;4.59;82.99
44697;BME280;57264;47.480;19.354;2024-02-21T06:38:56;99736.97;;;4.61;82.05
44697;BME280;57264;47.480;19.354;2024-02-21T06:41:21;99736.94;;;4.71;81.28
44697;BME280;57264;47.480;19.354;2024-02-21T06:43:47;99733.53;;;4.70;81.06
44697;BME280;57264;47.480;19.354;2024-02-21T06:46:22;99737.81;;;4.73;80.92
44697;BME280;57264;47.480;19.354;2024-02-21T06:48:47;99741.22;;;4.91;80.15
44697;BME280;57264;47.480;19.354;2024-02-21T06:51:12;99742.91;;;5.03;79.22
44697;BME280;57264;47.480;19.354;2024-02-21T06:53:38;99742.78;;;5.38;79.22
44697;BME280;57264;47.480;19.354;2024-02-21T06:56:03;99746.13;;;5.66;78.00
44697;BME280;57264;47.480;19.354;2024-02-21T06:58:29;99752.88;;;5.86;77.16
44697;BME280;57264;47.480;19.354;2024-02-21T07:00:54;99745.94;;;6.06;75.11
44697;BME280;57264;47.480;19.354;2024-02-21T07:03:19;99750.06;;;6.32;75.02
44697;BME280;57264;47.480;19.354;2024-02-21T07:05:45;99751.69;;;6.47;73.66
44697;BME280;57264;47.480;19.354;2024-02-21T07:08:10;99753.25;;;6.66;73.42
44697;BME280;57264;47.480;19.354;2024-02-21T07:10:35;99753.88;;;6.88;72.14
44697;BME280;57264;47.480;19.354;2024-02-21T07:13:01;99757.31;;;6.90;71.35
44697;BME280;57264;47.480;19.354;2024-02-21T07:15:26;99763.69;;;6.49;71.79
44697;BME280;57264;47.480;19.354;2024-02-21T07:17:52;99769.06;;;6.20;72.51
44697;BME280;57264;47.480;19.354;2024-02-21T07:20:17;99764.97;;;5.76;72.98
44697;BME280;57264;47.480;19.354;2024-02-21T07:22:42;99773.69;;;5.52;74.04
44697;BME280;57264;47.480;19.354;2024-02-21T07:25:08;99776.28;;;5.45;75.00
44697;BME280;57264;47.480;19.354;2024-02-21T07:27:33;99771.13;;;5.41;75.60
44697;BME280;57264;47.480;19.354;2024-02-21T07:29:58;99775.44;;;5.38;75.62
44697;BME280;57264;47.480;19.354;2024-02-21T07:32:24;99769.41;;;5.40;76.17
44697;BME280;57264;47.480;19.354;2024-02-21T07:34:49;99770.25;;;5.47;76.53
44697;BME280;57264;47.480;19.354;2024-02-21T07:37:14;99771.06;;;5.57;76.30
44697;BME280;57264;47.480;19.354;2024-02-21T07:39:40;99768.44;;;5.66;76.45
44697;BME280;57264;47.480;19.354;2024-02-21T07:42:06;99768.44;;;5.72;75.73
44697;BME280;57264;47.480;19.354;2024-02-21T07:44:31;99772.72;;;5.76;75.31
44697;BME280;57264;47.480;19.354;2024-02-21T07:46:57;99782.16;;;5.79;75.14
44697;BME280;57264;47.480;19.354;2024-02-21T07:49:22;99783.00;;;5.82;75.80
44697;BME280;57264;47.480;19.354;2024-02-21T07:51:48;99784.69;;;5.88;75.98
44697;BME280;57264;47.480;19.354;2024-02-21T07:54:13;99783.81;;;6.00;75.40
44697;BME280;57264;47.480;19.354;2024-02-21T07:56:39;99775.19;;;6.01;74.75
44697;BME280;57264;47.480;19.354;2024-02-21T07:59:04;99776.00;;;6.10;74.55
44697;BME280;57264;47.480;19.354;2024-02-21T08:01:30;99791.47;;;6.12;74.92
44697;BME280;57264;47.480;19.354;2024-02-21T08:03:55;99781.97;;;6.20;74.33
44697;BME280;57264;47.480;19.354;2024-02-21T08:06:21;99781.06;;;6.27;72.85
44697;BME280;57264;47.480;19.354;2024-02-21T08:08:46;99781.00;;;6.35;72.38
44697;BME280;57264;47.480;19.354;2024-02-21T08:11:11;99779.22;;;6.46;72.44
44697;BME280;57264;47.480;19.354;2024-02-21T08:13:37;99775.63;;;6.61;71.04
44697;BME280;57264;47.480;19.354;2024-02-21T08:16:02;99778.19;;;6.65;70.51
44697;BME280;57264;47.480;19.354;2024-02-21T08:18:28;99775.59;;;6.67;70.42
44697;BME280;57264;47.480;19.354;2024-02-21T08:20:53;99777.25;;;6.74;69.21
44697;BME280;57264;47.480;19.354;2024-02-21T08:23:19;99772.09;;;6.74;70.05
44697;BME280;57264;47.480;19.354;2024-02-21T08:25:44;99775.44;;;6.85;69.58
44697;BME280;57264;47.480;19.354;2024-02-21T08:28:10;99773.66;;;6.94;69.23
44697;BME280;57264;47.480;19.354;2024-02-21T08:30:35;99771.03;;;6.95;68.52
44697;BME280;57264;47.480;19.354;2024-02-21T08:33:00;99774.44;;;7.02;68.50
44697;BME280;57264;47.480;19.354;2024-02-21T08:35:26;99769.19;;;7.09;68.30
44697;BME280;57264;47.480;19.354;2024-02-21T08:37:51;99772.56;;;7.14;67.18
44697;BME280;57264;47.480;19.354;2024-02-21T08:40:16;99777.72;;;7.18;66.87
44697;BME280;57264;47.480;19.354;2024-02-21T08:42:46;99763.88;;;7.20;66.96
44697;BME280;57264;47.480;19.354;2024-02-21T08:45:12;99763.81;;;7.28;66.10
44697;BME280;57264;47.480;19.354;2024-02-21T08:47:41;99768.09;;;7.30;65.09
44697;BME280;57264;47.480;19.354;2024-02-21T08:50:06;99761.19;;;7.34;66.49
44697;BME280;57264;47.480;19.354;2024-02-21T08:52:32;99756.75;;;7.45;65.74
44697;BME280;57264;47.480;19.354;2024-02-21T08:54:57;99764.34;;;7.56;65.45
44697;BME280;57264;47.480;19.354;2024-02-21T08:57:23;99765.16;;;7.61;64.31
44697;BME280;57264;47.480;19.354;2024-02-21T08:59:48;99766.00;;;7.63;64.12
44697;BME280;57264;47.480;19.354;2024-02-21T09:02:13;99771.09;;;7.68;62.86
44697;BME280;57264;47.480;19.354;2024-02-21T09:04:41;99766.94;;;7.57;63.62
44697;BME280;57264;47.480;19.354;2024-02-21T09:07:06;99763.50;;;7.55;63.25
44697;BME280;57264;47.480;19.354;2024-02-21T09:09:31;99761.84;;;7.48;63.14
44697;BME280;57264;47.480;19.354;2024-02-21T09:11:58;99774.66;;;7.60;63.91
44697;BME280;57264;47.480;19.354;2024-02-21T09:14:30;99772.69;;;7.81;64.21
44697;BME280;57264;47.480;19.354;2024-02-21T09:16:55;99778.41;;;8.04;63.33
44697;BME280;57264;47.480;19.354;2024-02-21T09:19:21;99775.50;;;8.26;62.94
44697;BME280;57264;47.480;19.354;2024-02-21T09:21:46;99773.84;;;8.22;61.61
44697;BME280;57264;47.480;19.354;2024-02-21T09:24:11;99767.50;;;8.44;62.58
44697;BME280;57264;47.480;19.354;2024-02-21T09:26:37;99778.38;;;8.65;61.51
44697;BME280;57264;47.480;19.354;2024-02-21T09:29:02;99773.88;;;8.76;61.37
44697;BME280;57264;47.480;19.354;2024-02-21T09:31:29;99774.81;;;8.72;59.18
44697;BME280;57264;47.480;19.354;2024-02-21T09:33:54;99769.44;;;8.82;59.55
44697;BME280;57264;47.480;19.354;2024-02-21T09:36:19;99764.13;;;8.92;59.33
44697;BME280;57264;47.480;19.354;2024-02-21T09:38:46;99766.78;;;8.87;59.13
44697;BME280;57264;47.480;19.354;2024-02-21T09:41:18;99764.03;;;8.96;59.06
44697;BME280;57264;47.480;19.354;2024-02-21T09:43:43;99771.53;;;9.11;60.29
44697;BME280;57264;47.480;19.354;2024-02-21T09:46:15;99772.97;;;9.26;59.70
44697;BME280;57264;47.480;19.354;2024-02-21T09:51:27;99769.19;;;9.44;59.83
44697;BME280;57264;47.480;19.354;2024-02-21T09:53:54;99771.88;;;9.38;59.69
44697;BME280;57264;47.480;19.354;2024-02-21T09:56:20;99772.00;;;9.32;58.54
44697;BME280;57264;47.480;19.354;2024-02-21T09:58:46;99770.81;;;9.02;59.65
44697;BME280;57264;47.480;19.354;2024-02-21T10:01:12;99768.09;;;9.11;58.91
44697;BME280;57264;47.480;19.354;2024-02-21T10:03:38;99762.53;;;9.31;59.04
44697;BME280;57264;47.480;19.354;2024-02-21T10:06:03;99757.19;;;9.39;57.72
44697;BME280;57264;47.480;19.354;2024-02-21T10:08:29;99750.72;;;9.59;58.07
44697;BME280;57264;47.480;19.354;2024-02-21T10:10:54;99760.00;;;9.71;56.52
44697;BME280;57264;47.480;19.354;2024-02-21T10:13:27;99748.66;;;9.75;56.53
44697;BME280;57264;47.480;19.354;2024-02-21T10:18:27;99751.09;;;9.83;55.65
44697;BME280;57264;47.480;19.354;2024-02-21T10:21:00;99753.53;;;9.89;56.62
44697;BME280;57264;47.480;19.354;2024-02-21T10:23:25;99740.66;;;9.86;55.47
44697;BME280;57264;47.480;19.354;2024-02-21T10:25:51;99736.22;;;9.90;56.16
44697;BME280;57264;47.480;19.354;2024-02-21T10:28:16;99736.09;;;9.96;56.45
44697;BME280;57264;47.480;19.354;2024-02-21T10:30:49;99731.81;;;9.95;56.37
44697;BME280;57264;47.480;19.354;2024-02-21T10:33:15;99721.09;;;10.10;56.60
44697;BME280;57264;47.480;19.354;2024-02-21T10:35:41;99724.22;;;10.26;56.25
44697;BME280;57264;47.480;19.354;2024-02-21T10:38:06;99719.00;;;10.26;56.60
44697;BME280;57264;47.480;19.354;2024-02-21T10:40:31;99720.78;;;10.22;55.41
44697;BME280;57264;47.480;19.354;2024-02-21T10:42:57;99715.59;;;10.22;54.50
44697;BME280;57264;47.480;19.354;2024-02-21T10:45:30;99715.66;;;10.19;54.80
44697;BME280;57264;47.480;19.354;2024-02-21T10:47:57;99715.34;;;10.33;54.60
44697;BME280;57264;47.480;19.354;2024-02-21T10:50:27;99697.38;;;10.59;55.13
44697;BME280;57264;47.480;19.354;2024-02-21T10:55:37;99697.59;;;10.84;54.20
44697;BME280;57264;47.480;19.354;2024-02-21T10:58:04;99700.94;;;10.90;54.04
44697;BME280;57264;47.480;19.354;2024-02-21T11:00:30;99684.16;;;11.01;53.70
44697;BME280;57264;47.480;19.354;2024-02-21T11:02:56;99685.00;;;11.33;53.91
44697;BME280;57264;47.480;19.354;2024-02-21T11:05:22;99674.06;;;11.51;52.14
44697;BME280;57264;47.480;19.354;2024-02-21T11:07:47;99667.50;;;11.38;50.35
44697;BME280;57264;47.480;19.354;2024-02-21T11:10:23;99667.97;;;11.52;52.37
44697;BME280;57264;47.480;19.354;2024-02-21T11:12:48;99666.75;;;11.64;49.87
44697;BME280;57264;47.480;19.354;2024-02-21T11:15:14;99659.31;;;11.80;50.07
44697;BME280;57264;47.480;19.354;2024-02-21T11:17:40;99653.94;;;11.86;49.45
44697;BME280;57264;47.480;19.354;2024-02-21T11:20:14;99654.56;;;11.94;50.88
44697;BME280;57264;47.480;19.354;2024-02-21T11:22:42;99652.16;;;12.15;49.32
44697;BME280;57264;47.480;19.354;2024-02-21T11:25:08;99647.44;;;11.99;48.55
44697;BME280;57264;47.480;19.354;2024-02-21T11:27:36;99631.78;;;12.01;49.86
44697;BME280;57264;47.480;19.354;2024-02-21T11:30:03;99642.56;;;12.17;48.93
44697;BME280;57264;47.480;19.354;2024-02-21T11:32:29;99640.78;;;12.17;50.84
44697;BME280;57264;47.480;19.354;2024-02-21T11:34:59;99628.19;;;12.32;50.21
44697;BME280;57264;47.480;19.354;2024-02-21T11:37:29;99640.72;;;12.19;51.09
44697;BME280;57264;47.480;19.354;2024-02-21T11:39:55;99638.44;;;12.10;51.54
44697;BME280;57264;47.480;19.354;2024-02-21T12:09:00;99624.16;;;11.09;52.07
44697;BME280;57264;47.480;19.354;2024-02-21T12:11:26;99620.81;;;11.04;52.32
44697;BME280;57264;47.480;19.354;2024-02-21T12:25:24;99610.16;;;11.13;52.45
44697;BME280;57264;47.480;19.354;2024-02-21T12:27:51;99600.75;;;11.09;52.48
44697;BME280;57264;47.480;19.354;2024-02-21T12:30:17;99602.47;;;11.08;52.80
44697;BME280;57264;47.480;19.354;2024-02-21T12:32:42;99606.22;;;11.28;53.01
44697;BME280;57264;47.480;19.354;2024-02-21T12:35:07;99598.78;;;11.16;52.81
44697;BME280;57264;47.480;19.354;2024-02-21T12:37:33;99600.53;;;11.17;53.08
44697;BME280;57264;47.480;19.354;2024-02-21T12:39:58;99607.28;;;11.22;53.64
44697;BME280;57264;47.480;19.354;2024-02-21T12:42:23;99599.47;;;11.22;52.63
44697;BME280;57264;47.480;19.354;2024-02-21T12:44:53;99595.47;;;11.11;52.23
44697;BME280;57264;47.480;19.354;2024-02-21T12:47:19;99590.84;;;10.91;52.62
44697;BME280;57264;47.480;19.354;2024-02-21T12:49:48;99582.50;;;10.79;54.17
44697;BME280;57264;47.480;19.354;2024-02-21T12:52:13;99582.56;;;10.78;53.47
44697;BME280;57264;47.480;19.354;2024-02-21T13:10:33;99569.00;;;10.67;55.48
44697;BME280;57264;47.480;19.354;2024-02-21T13:12:59;99562.91;;;10.68;54.20
44697;BME280;57264;47.480;19.354;2024-02-21T13:15:25;99559.88;;;10.83;54.18
44697;BME280;57264;47.480;19.354;2024-02-21T13:17:50;99547.72;;;10.83;52.91
44697;BME280;57264;47.480;19.354;2024-02-21T13:20:15;99555.31;;;10.91;53.82
44697;BME280;57264;47.480;19.354;2024-02-21T13:22:40;99547.94;;;10.76;53.80
44697;BME280;57264;47.480;19.354;2024-02-21T13:25:06;99548.16;;;10.70;54.31
44697;BME280;57264;47.480;19.354;2024-02-21T13:27:32;99547.38;;;10.66;54.42
44697;BME280;57264;47.480;19.354;2024-02-21T13:29:58;99542.38;;;10.58;54.68
44697;BME280;57264;47.480;19.354;2024-02-21T13:32:23;99550.22;;;10.57;53.88
44697;BME280;57264;47.480;19.354;2024-02-21T13:34:49;99545.84;;;10.59;53.77
44697;BME280;57264;47.480;19.354;2024-02-21T13:37:15;99539.78;;;10.58;53.56
44697;BME280;57264;47.480;19.354;2024-02-21T13:39:40;99531.16;;;10.56;53.26
44697;BME280;57264;47.480;19.354;2024-02-21T13:42:06;99532.06;;;10.55;53.52
44697;BME280;57264;47.480;19.354;2024-02-21T13:44:31;99532.91;;;10.57;53.06
44697;BME280;57264;47.480;19.354;2024-02-21T13:46:57;99525.75;;;10.64;52.83
44697;BME280;57264;47.480;19.354;2024-02-21T13:49:22;99519.44;;;10.73;52.29
44697;BME280;57264;47.480;19.354;2024-02-21T13:51:48;99514.31;;;10.71;52.04